createdAt,value
2018-08-13T00:01:03.263Z,80.00
2018-08-13T00:03:32.441Z,79.90
2018-08-13T00:06:01.335Z,80.10
2018-08-13T00:08:30.198Z,79.50
2018-08-13T00:10:59.054Z,79.90
2018-08-13T00:13:27.904Z,80.30
2018-08-13T00:15:56.835Z,80.40
2018-08-13T00:18:25.705Z,80.70
2018-08-13T00:20:54.689Z,80.70
2018-08-13T00:23:23.578Z,80.80
2018-08-13T00:25:52.518Z,80.80
2018-08-13T00:28:21.419Z,81.10
2018-08-13T00:30:50.365Z,81.10
2018-08-13T00:33:19.211Z,81.00
2018-08-13T00:35:48.104Z,80.90
2018-08-13T00:38:17.065Z,81.40
2018-08-13T00:40:45.949Z,81.40
2018-08-13T00:43:14.864Z,81.40
2018-08-13T00:45:43.797Z,81.00
2018-08-13T00:48:12.696Z,81.10
2018-08-13T00:50:41.699Z,81.40
2018-08-13T00:53:10.514Z,81.60
2018-08-13T00:55:39.373Z,82.60
2018-08-13T00:58:08.261Z,82.20
2018-08-13T01:00:37.219Z,82.10
2018-08-13T01:03:07.284Z,81.60
2018-08-13T01:05:36.259Z,82.10
2018-08-13T01:08:05.167Z,81.80
2018-08-13T01:10:34.090Z,82.30
2018-08-13T01:13:03.039Z,82.60
2018-08-13T01:15:32.099Z,83.00
2018-08-13T01:18:00.981Z,83.00
2018-08-13T01:20:29.855Z,84.20
2018-08-13T01:22:58.680Z,84.20
2018-08-13T01:25:27.768Z,84.00
2018-08-13T01:27:56.700Z,84.20
2018-08-13T01:30:25.608Z,84.10
2018-08-13T01:32:54.544Z,83.80
2018-08-13T01:35:23.437Z,83.00
2018-08-13T01:37:52.318Z,83.10
2018-08-13T01:40:21.267Z,84.00
2018-08-13T01:42:50.098Z,84.00
2018-08-13T01:45:19.024Z,83.70
2018-08-13T01:47:47.916Z,83.40
2018-08-13T01:50:16.813Z,83.40
2018-08-13T01:52:45.721Z,83.80
2018-08-13T01:55:14.599Z,83.60
2018-08-13T01:57:43.433Z,83.70
2018-08-13T02:00:14.881Z,83.60
2018-08-13T02:02:43.840Z,83.30
2018-08-13T02:05:12.777Z,83.80
2018-08-13T02:07:41.635Z,83.50
2018-08-13T02:10:12.044Z,83.40
2018-08-13T02:12:41.193Z,83.20
2018-08-13T02:15:10.214Z,82.70
2018-08-13T02:17:39.115Z,82.20
2018-08-13T02:20:09.033Z,82.80
2018-08-13T02:25:07.514Z,83.50
2018-08-13T02:27:36.524Z,84.40
2018-08-13T02:30:08.478Z,85.00
2018-08-13T02:32:37.569Z,85.40
2018-08-13T02:35:07.736Z,85.30
2018-08-13T02:37:36.748Z,85.40
2018-08-13T02:40:07.177Z,85.70
2018-08-13T02:42:36.281Z,84.50
2018-08-13T02:45:07.040Z,84.90
2018-08-13T02:47:35.874Z,85.70
2018-08-13T02:50:05.819Z,86.00
2018-08-13T02:52:34.726Z,85.50
2018-08-13T02:55:03.648Z,85.60
2018-08-13T02:57:32.473Z,85.90
2018-08-13T03:00:01.346Z,86.80
2018-08-13T03:02:30.219Z,86.00
2018-08-13T03:04:59.079Z,85.20
2018-08-13T03:07:27.902Z,86.40
2018-08-13T03:09:56.758Z,86.40
2018-08-13T03:12:25.631Z,86.00
2018-08-13T03:14:54.512Z,86.50
2018-08-13T03:17:32.197Z,86.70
2018-08-13T03:20:01.974Z,86.90
2018-08-13T03:22:31.562Z,87.30
2018-08-13T03:25:01.586Z,86.90
2018-08-13T03:27:30.636Z,87.00
2018-08-13T03:30:00.554Z,86.90
2018-08-13T03:32:29.625Z,86.90
2018-08-13T03:34:58.545Z,87.10
2018-08-13T03:37:27.434Z,86.90
2018-08-13T03:39:56.401Z,86.70
2018-08-13T03:42:25.278Z,86.70
2018-08-13T03:44:54.188Z,87.00
2018-08-13T03:47:23.104Z,87.50
2018-08-13T03:49:52.007Z,86.40
2018-08-13T03:52:20.884Z,87.00
2018-08-13T03:54:49.786Z,86.20
2018-08-13T03:57:18.576Z,86.00
2018-08-13T03:59:47.465Z,86.20
2018-08-13T04:02:16.436Z,86.30
2018-08-13T04:04:45.285Z,85.70
2018-08-13T04:07:14.264Z,85.20
2018-08-13T04:09:44.764Z,86.10
2018-08-13T04:12:14.615Z,86.40
2018-08-13T04:14:43.546Z,87.20
2018-08-13T04:17:12.380Z,86.80
2018-08-13T04:19:41.295Z,87.00
2018-08-13T04:22:10.189Z,86.90
2018-08-13T04:24:39.058Z,86.80
2018-08-13T04:27:07.980Z,87.30
2018-08-13T04:29:36.800Z,87.10
2018-08-13T04:32:05.675Z,87.60
2018-08-13T04:34:34.650Z,88.10
2018-08-13T04:37:03.683Z,89.10
2018-08-13T04:39:32.620Z,86.50
2018-08-13T04:42:01.476Z,86.60
2018-08-13T04:44:30.409Z,86.90
2018-08-13T04:46:59.389Z,87.20
2018-08-13T04:49:28.312Z,86.70
2018-08-13T04:51:57.298Z,86.50
2018-08-13T04:54:26.189Z,86.50
2018-08-13T04:56:55.155Z,86.50
2018-08-13T04:59:24.117Z,86.80
2018-08-13T05:01:53.137Z,87.30
2018-08-13T05:04:22.071Z,87.60
2018-08-13T05:06:50.961Z,88.10
2018-08-13T05:09:19.860Z,87.80
2018-08-13T05:11:48.756Z,87.90
2018-08-13T05:14:17.657Z,88.10
2018-08-13T05:16:46.559Z,87.80
2018-08-13T05:19:15.465Z,87.70
2018-08-13T05:21:44.405Z,88.00
2018-08-13T05:24:13.294Z,87.70
2018-08-13T05:26:42.764Z,87.70
2018-08-13T05:29:11.675Z,87.80
2018-08-13T05:31:40.518Z,87.10
2018-08-13T05:34:09.496Z,86.40
2018-08-13T05:36:38.534Z,85.90
2018-08-13T05:39:10.276Z,85.80
2018-08-13T05:41:39.320Z,85.50
2018-08-13T05:44:08.300Z,85.60
2018-08-13T05:46:37.217Z,86.20
2018-08-13T05:49:06.244Z,86.20
2018-08-13T05:51:35.164Z,87.10
2018-08-13T05:54:04.186Z,87.30
2018-08-13T05:56:33.077Z,86.40
2018-08-13T05:59:01.984Z,86.10
2018-08-13T06:01:30.842Z,86.60
2018-08-13T06:03:59.777Z,86.70
2018-08-13T06:06:28.678Z,86.20
2018-08-13T06:08:57.566Z,86.20
2018-08-13T06:11:26.578Z,86.50
2018-08-13T06:13:55.356Z,87.40
2018-08-13T06:16:24.226Z,86.90
2018-08-13T06:18:53.459Z,87.30
2018-08-13T06:21:22.421Z,86.10
2018-08-13T06:23:51.300Z,85.70
2018-08-13T06:26:20.183Z,85.50
2018-08-13T06:28:49.071Z,85.10
2018-08-13T06:31:17.948Z,85.60
2018-08-13T06:33:46.818Z,85.40
2018-08-13T06:36:15.807Z,86.40
2018-08-13T06:38:44.744Z,85.90
2018-08-13T06:41:13.650Z,86.90
2018-08-13T06:43:42.593Z,87.50
2018-08-13T06:46:11.465Z,85.50
2018-08-13T06:48:40.324Z,85.10
2018-08-13T06:51:09.233Z,84.00
2018-08-13T06:53:39.348Z,84.20
2018-08-13T06:56:08.609Z,82.70
2018-08-13T06:58:37.525Z,82.10
2018-08-13T07:01:06.593Z,81.20
2018-08-13T07:03:35.549Z,80.70
2018-08-13T07:06:04.549Z,82.20
2018-08-13T07:08:33.452Z,80.60
2018-08-13T07:11:02.382Z,81.30
2018-08-13T07:13:31.275Z,82.20
2018-08-13T07:16:00.184Z,81.40
2018-08-13T07:18:29.062Z,79.00
2018-08-13T07:20:57.994Z,80.10
2018-08-13T07:23:32.439Z,78.80
2018-08-13T07:26:06.007Z,79.50
2018-08-13T07:28:34.920Z,78.30
2018-08-13T07:31:03.775Z,79.10
2018-08-13T07:36:01.513Z,74.90
2018-08-13T07:38:30.518Z,75.10
2018-08-13T07:40:59.418Z,74.00
2018-08-13T07:43:28.364Z,77.30
2018-08-13T07:45:57.340Z,74.60
2018-08-13T07:48:26.320Z,76.20
2018-08-13T07:50:55.193Z,74.80
2018-08-13T07:53:24.214Z,74.60
2018-08-13T07:55:53.148Z,75.50
2018-08-13T07:58:22.102Z,75.70
2018-08-13T08:00:51.070Z,76.30
2018-08-13T08:03:19.995Z,75.80
2018-08-13T08:05:48.937Z,74.30
2018-08-13T08:08:17.830Z,75.10
2018-08-13T08:10:46.827Z,74.50
2018-08-13T08:13:15.705Z,73.00
2018-08-13T08:15:44.579Z,72.70
2018-08-13T08:18:13.447Z,75.60
2018-08-13T08:20:42.546Z,72.70
2018-08-13T08:23:11.457Z,69.80
2018-08-13T08:25:40.422Z,72.40
2018-08-13T08:28:09.388Z,71.90
2018-08-13T08:30:38.345Z,70.70
2018-08-13T08:33:07.604Z,72.30
2018-08-13T08:35:36.543Z,69.50
2018-08-13T08:38:06.001Z,69.50
2018-08-13T08:40:35.118Z,67.30
2018-08-13T08:43:04.120Z,68.80
2018-08-13T08:45:33.027Z,66.20
2018-08-13T08:48:01.909Z,68.20
2018-08-13T08:50:30.873Z,67.70
2018-08-13T08:52:59.784Z,69.10
2018-08-13T08:55:28.783Z,70.70
2018-08-13T08:57:57.679Z,70.30
2018-08-13T09:00:26.578Z,67.80
2018-08-13T09:02:55.549Z,67.80
2018-08-13T09:05:24.482Z,68.00
2018-08-13T09:07:53.483Z,71.80
2018-08-13T09:10:22.451Z,72.60
2018-08-13T09:12:51.323Z,72.50
2018-08-13T09:15:20.223Z,72.70
2018-08-13T17:34:10.805Z,76.90
2018-08-13T17:36:40.103Z,80.20
2018-08-13T17:39:12.583Z,77.30
2018-08-13T17:41:41.919Z,80.40
2018-08-13T17:44:10.969Z,76.20
2018-08-13T17:46:39.967Z,75.90
2018-08-13T17:49:09.433Z,77.20
2018-08-13T17:51:38.705Z,81.90
2018-08-13T17:54:07.743Z,79.20
